sensor_id;sensor_type;location;lat;lon;timestamp;P1;durP1;ratioP1;P2;durP2;ratioP2
41952;SDS011;63613;28.200;112.870;2023-04-24T00:02:20;1.33;;;1.23;;
41952;SDS011;63613;28.200;112.870;2023-04-24T00:04:47;1.25;;;1.10;;
41952;SDS011;63613;28.200;112.870;2023-04-24T00:07:14;2.38;;;1.58;;
41952;SDS011;63613;28.200;112.870;2023-04-24T00:09:45;1.27;;;1.17;;
41952;SDS011;63613;28.200;112.870;2023-04-24T00:12:12;1.52;;;1.40;;
41952;SDS011;63613;28.200;112.870;2023-04-24T00:14:39;1.20;;;1.10;;
41952;SDS011;63613;28.200;112.870;2023-04-24T00:17:06;1.80;;;1.40;;
41952;SDS011;63613;28.200;112.870;2023-04-24T00:19:32;1.35;;;1.25;;
41952;SDS011;63613;28.200;112.870;2023-04-24T00:21:59;2.17;;;1.42;;
41952;SDS011;63613;28.200;112.870;2023-04-24T00:24:26;1.63;;;1.20;;
41952;SDS011;63613;28.200;112.870;2023-04-24T00:26:53;1.48;;;1.20;;
41952;SDS011;63613;28.200;112.870;2023-04-24T00:29:20;1.30;;;1.20;;
41952;SDS011;63613;28.200;112.870;2023-04-24T00:31:46;1.70;;;1.08;;
41952;SDS011;63613;28.200;112.870;2023-04-24T00:34:13;1.40;;;1.15;;
41952;SDS011;63613;28.200;112.870;2023-04-24T00:36:40;1.33;;;1.20;;
41952;SDS011;63613;28.200;112.870;2023-04-24T00:39:07;1.75;;;1.30;;
41952;SDS011;63613;28.200;112.870;2023-04-24T00:41:37;1.95;;;1.75;;
41952;SDS011;63613;28.200;112.870;2023-04-24T00:44:03;1.45;;;1.35;;
41952;SDS011;63613;28.200;112.870;2023-04-24T00:46:30;0.93;;;0.93;;
41952;SDS011;63613;28.200;112.870;2023-04-24T00:48:58;2.80;;;1.35;;
41952;SDS011;63613;28.200;112.870;2023-04-24T00:51:26;1.88;;;1.40;;
41952;SDS011;63613;28.200;112.870;2023-04-24T00:53:53;1.40;;;1.02;;
41952;SDS011;63613;28.200;112.870;2023-04-24T00:56:19;1.23;;;1.00;;
41952;SDS011;63613;28.200;112.870;2023-04-24T00:58:46;2.00;;;1.40;;
41952;SDS011;63613;28.200;112.870;2023-04-24T01:01:33;2.03;;;1.00;;
41952;SDS011;63613;28.200;112.870;2023-04-24T01:04:03;1.40;;;1.30;;
41952;SDS011;63613;28.200;112.870;2023-04-24T01:06:32;1.40;;;1.30;;
41952;SDS011;63613;28.200;112.870;2023-04-24T01:09:00;1.13;;;0.95;;
41952;SDS011;63613;28.200;112.870;2023-04-24T01:11:27;1.40;;;1.30;;
41952;SDS011;63613;28.200;112.870;2023-04-24T01:13:55;2.33;;;1.42;;
41952;SDS011;63613;28.200;112.870;2023-04-24T01:16:24;1.40;;;1.20;;
41952;SDS011;63613;28.200;112.870;2023-04-24T01:18:51;2.58;;;1.40;;
41952;SDS011;63613;28.200;112.870;2023-04-24T01:21:18;1.38;;;1.17;;
41952;SDS011;63613;28.200;112.870;2023-04-24T01:23:45;2.67;;;1.42;;
41952;SDS011;63613;28.200;112.870;2023-04-24T01:26:33;1.20;;;1.10;;
41952;SDS011;63613;28.200;112.870;2023-04-24T01:29:00;3.22;;;1.35;;
41952;SDS011;63613;28.200;112.870;2023-04-24T01:31:27;2.95;;;1.60;;
41952;SDS011;63613;28.200;112.870;2023-04-24T01:33:54;1.58;;;1.25;;
41952;SDS011;63613;28.200;112.870;2023-04-24T01:36:21;1.88;;;1.40;;
41952;SDS011;63613;28.200;112.870;2023-04-24T01:38:49;1.33;;;1.02;;
41952;SDS011;63613;28.200;112.870;2023-04-24T01:41:16;1.40;;;1.30;;
41952;SDS011;63613;28.200;112.870;2023-04-24T01:44:03;1.58;;;1.48;;
41952;SDS011;63613;28.200;112.870;2023-04-24T01:46:30;2.55;;;1.30;;
41952;SDS011;63613;28.200;112.870;2023-04-24T01:48:58;1.40;;;1.30;;
41952;SDS011;63613;28.200;112.870;2023-04-24T01:51:26;2.10;;;1.02;;
41952;SDS011;63613;28.200;112.870;2023-04-24T01:53:53;1.65;;;1.55;;
41952;SDS011;63613;28.200;112.870;2023-04-24T01:56:21;1.35;;;1.17;;
41952;SDS011;63613;28.200;112.870;2023-04-24T01:58:49;1.40;;;1.08;;
41952;SDS011;63613;28.200;112.870;2023-04-24T02:01:18;1.40;;;1.30;;
41952;SDS011;63613;28.200;112.870;2023-04-24T02:03:45;1.77;;;1.10;;
41952;SDS011;63613;28.200;112.870;2023-04-24T02:06:12;1.42;;;1.30;;
41952;SDS011;63613;28.200;112.870;2023-04-24T02:08:39;1.48;;;1.27;;
41952;SDS011;63613;28.200;112.870;2023-04-24T02:11:06;1.73;;;1.40;;
41952;SDS011;63613;28.200;112.870;2023-04-24T02:13:53;1.80;;;1.40;;
41952;SDS011;63613;28.200;112.870;2023-04-24T02:16:20;3.33;;;1.67;;
41952;SDS011;63613;28.200;112.870;2023-04-24T02:18:48;1.40;;;1.30;;
41952;SDS011;63613;28.200;112.870;2023-04-24T02:21:15;1.45;;;1.35;;
41952;SDS011;63613;28.200;112.870;2023-04-24T02:24:02;1.65;;;1.30;;
41952;SDS011;63613;28.200;112.870;2023-04-24T02:26:29;2.17;;;1.20;;
41952;SDS011;63613;28.200;112.870;2023-04-24T02:28:57;2.00;;;1.70;;
41952;SDS011;63613;28.200;112.870;2023-04-24T02:31:23;1.80;;;1.17;;
41952;SDS011;63613;28.200;112.870;2023-04-24T02:33:50;3.25;;;1.55;;
41952;SDS011;63613;28.200;112.870;2023-04-24T02:36:17;1.75;;;1.33;;
41952;SDS011;63613;28.200;112.870;2023-04-24T02:38:44;1.65;;;1.17;;
41952;SDS011;63613;28.200;112.870;2023-04-24T02:41:11;2.47;;;1.60;;
41952;SDS011;63613;28.200;112.870;2023-04-24T02:43:37;2.13;;;1.30;;
41952;SDS011;63613;28.200;112.870;2023-04-24T02:46:05;2.40;;;1.40;;
41952;SDS011;63613;28.200;112.870;2023-04-24T02:48:32;2.08;;;1.48;;
41952;SDS011;63613;28.200;112.870;2023-04-24T02:50:59;1.13;;;1.02;;
41952;SDS011;63613;28.200;112.870;2023-04-24T02:53:26;1.25;;;1.20;;
41952;SDS011;63613;28.200;112.870;2023-04-24T02:56:12;1.20;;;1.10;;
41952;SDS011;63613;28.200;112.870;2023-04-24T02:58:40;1.35;;;1.23;;
41952;SDS011;63613;28.200;112.870;2023-04-24T03:01:07;2.45;;;1.25;;
41952;SDS011;63613;28.200;112.870;2023-04-24T03:03:38;1.75;;;1.38;;
41952;SDS011;63613;28.200;112.870;2023-04-24T03:06:05;1.73;;;1.10;;
41952;SDS011;63613;28.200;112.870;2023-04-24T03:08:33;2.28;;;1.55;;
41952;SDS011;63613;28.200;112.870;2023-04-24T03:11:00;2.83;;;1.45;;
41952;SDS011;63613;28.200;112.870;2023-04-24T03:13:27;1.58;;;1.20;;
41952;SDS011;63613;28.200;112.870;2023-04-24T03:15:54;0.93;;;0.93;;
41952;SDS011;63613;28.200;112.870;2023-04-24T03:18:21;1.58;;;1.30;;
41952;SDS011;63613;28.200;112.870;2023-04-24T03:20:48;2.13;;;1.10;;
41952;SDS011;63613;28.200;112.870;2023-04-24T03:23:15;2.20;;;1.27;;
41952;SDS011;63613;28.200;112.870;2023-04-24T03:26:02;1.67;;;1.38;;
41952;SDS011;63613;28.200;112.870;2023-04-24T03:28:29;1.92;;;1.10;;
41952;SDS011;63613;28.200;112.870;2023-04-24T03:30:55;2.03;;;1.05;;
41952;SDS011;63613;28.200;112.870;2023-04-24T03:33:42;3.28;;;1.48;;
41952;SDS011;63613;28.200;112.870;2023-04-24T03:36:09;2.10;;;1.45;;
41952;SDS011;63613;28.200;112.870;2023-04-24T03:38:36;1.63;;;1.02;;
41952;SDS011;63613;28.200;112.870;2023-04-24T03:41:03;1.58;;;1.25;;
41952;SDS011;63613;28.200;112.870;2023-04-24T03:43:30;3.17;;;1.15;;
41952;SDS011;63613;28.200;112.870;2023-04-24T03:45:58;1.40;;;1.13;;
41952;SDS011;63613;28.200;112.870;2023-04-24T03:48:25;2.45;;;1.15;;
41952;SDS011;63613;28.200;112.870;2023-04-24T03:50:52;1.45;;;1.17;;
41952;SDS011;63613;28.200;112.870;2023-04-24T03:53:19;3.28;;;1.83;;
41952;SDS011;63613;28.200;112.870;2023-04-24T03:55:46;3.72;;;1.50;;
41952;SDS011;63613;28.200;112.870;2023-04-24T03:58:13;2.10;;;1.48;;
41952;SDS011;63613;28.200;112.870;2023-04-24T04:00:40;3.13;;;1.40;;
41952;SDS011;63613;28.200;112.870;2023-04-24T04:03:06;1.70;;;1.60;;
41952;SDS011;63613;28.200;112.870;2023-04-24T04:05:53;2.00;;;1.30;;
41952;SDS011;63613;28.200;112.870;2023-04-24T04:08:20;1.60;;;1.50;;
41952;SDS011;63613;28.200;112.870;2023-04-24T04:10:47;1.33;;;1.23;;
41952;SDS011;63613;28.200;112.870;2023-04-24T04:13:14;2.05;;;1.38;;
41952;SDS011;63613;28.200;112.870;2023-04-24T04:15:40;1.50;;;1.33;;
41952;SDS011;63613;28.200;112.870;2023-04-24T04:18:10;2.50;;;1.10;;
41952;SDS011;63613;28.200;112.870;2023-04-24T04:20:37;1.80;;;1.10;;
41952;SDS011;63613;28.200;112.870;2023-04-24T04:23:03;2.70;;;1.65;;
41952;SDS011;63613;28.200;112.870;2023-04-24T04:25:30;1.90;;;1.48;;
41952;SDS011;63613;28.200;112.870;2023-04-24T04:27:57;2.15;;;1.20;;
41952;SDS011;63613;28.200;112.870;2023-04-24T04:30:24;1.50;;;1.15;;
41952;SDS011;63613;28.200;112.870;2023-04-24T04:32:51;1.30;;;1.20;;
41952;SDS011;63613;28.200;112.870;2023-04-24T04:35:18;1.50;;;1.33;;
41952;SDS011;63613;28.200;112.870;2023-04-24T04:37:45;2.28;;;1.20;;
41952;SDS011;63613;28.200;112.870;2023-04-24T04:40:12;2.13;;;1.60;;
41952;SDS011;63613;28.200;112.870;2023-04-24T04:42:38;1.75;;;1.60;;
41952;SDS011;63613;28.200;112.870;2023-04-24T04:45:06;3.08;;;1.60;;
41952;SDS011;63613;28.200;112.870;2023-04-24T04:47:36;1.65;;;1.55;;
41952;SDS011;63613;28.200;112.870;2023-04-24T04:50:23;3.25;;;1.63;;
41952;SDS011;63613;28.200;112.870;2023-04-24T04:52:50;1.50;;;1.40;;
41952;SDS011;63613;28.200;112.870;2023-04-24T04:55:18;2.88;;;1.35;;
41952;SDS011;63613;28.200;112.870;2023-04-24T04:57:47;1.38;;;1.27;;
41952;SDS011;63613;28.200;112.870;2023-04-24T05:00:14;3.28;;;1.63;;
41952;SDS011;63613;28.200;112.870;2023-04-24T05:02:42;1.77;;;1.50;;
41952;SDS011;63613;28.200;112.870;2023-04-24T05:05:09;1.95;;;1.23;;
41952;SDS011;63613;28.200;112.870;2023-04-24T05:07:36;2.15;;;1.55;;
41952;SDS011;63613;28.200;112.870;2023-04-24T05:10:05;2.53;;;1.50;;
41952;SDS011;63613;28.200;112.870;2023-04-24T05:12:52;3.30;;;1.50;;
41952;SDS011;63613;28.200;112.870;2023-04-24T05:15:22;2.08;;;1.75;;
41952;SDS011;63613;28.200;112.870;2023-04-24T05:17:49;1.85;;;1.63;;
41952;SDS011;63613;28.200;112.870;2023-04-24T05:20:19;2.13;;;1.30;;
41952;SDS011;63613;28.200;112.870;2023-04-24T05:22:48;4.22;;;2.63;;
41952;SDS011;63613;28.200;112.870;2023-04-24T05:25:15;4.90;;;2.35;;
41952;SDS011;63613;28.200;112.870;2023-04-24T05:27:42;4.07;;;3.22;;
41952;SDS011;63613;28.200;112.870;2023-04-24T05:30:10;3.20;;;2.72;;
41952;SDS011;63613;28.200;112.870;2023-04-24T05:32:38;5.13;;;3.38;;
41952;SDS011;63613;28.200;112.870;2023-04-24T05:35:05;4.82;;;3.63;;
41952;SDS011;63613;28.200;112.870;2023-04-24T05:37:32;6.85;;;4.53;;
41952;SDS011;63613;28.200;112.870;2023-04-24T05:39:59;10.20;;;6.85;;
41952;SDS011;63613;28.200;112.870;2023-04-24T05:42:25;20.45;;;11.82;;
41952;SDS011;63613;28.200;112.870;2023-04-24T05:44:55;24.02;;;14.63;;
41952;SDS011;63613;28.200;112.870;2023-04-24T05:47:22;29.85;;;15.93;;
41952;SDS011;63613;28.200;112.870;2023-04-24T05:49:49;24.90;;;15.35;;
41952;SDS011;63613;28.200;112.870;2023-04-24T05:52:16;29.23;;;16.60;;
41952;SDS011;63613;28.200;112.870;2023-04-24T05:55:03;31.15;;;18.83;;
41952;SDS011;63613;28.200;112.870;2023-04-24T05:57:30;33.45;;;19.08;;
41952;SDS011;63613;28.200;112.870;2023-04-24T05:59:57;35.78;;;20.90;;
41952;SDS011;63613;28.200;112.870;2023-04-24T06:02:24;35.80;;;19.17;;
41952;SDS011;63613;28.200;112.870;2023-04-24T06:04:58;37.92;;;21.55;;
41952;SDS011;63613;28.200;112.870;2023-04-24T06:07:25;34.78;;;19.23;;
41952;SDS011;63613;28.200;112.870;2023-04-24T06:10:12;41.45;;;20.80;;
41952;SDS011;63613;28.200;112.870;2023-04-24T06:12:39;37.35;;;20.63;;
41952;SDS011;63613;28.200;112.870;2023-04-24T06:15:06;41.58;;;21.38;;
41952;SDS011;63613;28.200;112.870;2023-04-24T06:17:34;35.70;;;19.77;;
41952;SDS011;63613;28.200;112.870;2023-04-24T06:20:00;40.10;;;20.17;;
41952;SDS011;63613;28.200;112.870;2023-04-24T06:22:30;38.67;;;19.88;;
41952;SDS011;63613;28.200;112.870;2023-04-24T06:25:00;36.13;;;20.33;;
41952;SDS011;63613;28.200;112.870;2023-04-24T06:27:27;33.53;;;18.63;;
41952;SDS011;63613;28.200;112.870;2023-04-24T06:29:54;29.77;;;18.52;;
41952;SDS011;63613;28.200;112.870;2023-04-24T06:32:22;32.17;;;19.35;;
41952;SDS011;63613;28.200;112.870;2023-04-24T06:34:52;33.78;;;18.52;;
41952;SDS011;63613;28.200;112.870;2023-04-24T06:37:22;31.48;;;18.52;;
41952;SDS011;63613;28.200;112.870;2023-04-24T06:39:51;35.38;;;19.33;;
41952;SDS011;63613;28.200;112.870;2023-04-24T06:42:18;29.13;;;18.33;;
41952;SDS011;63613;28.200;112.870;2023-04-24T06:44:48;31.23;;;17.67;;
41952;SDS011;63613;28.200;112.870;2023-04-24T06:47:15;29.90;;;17.83;;
41952;SDS011;63613;28.200;112.870;2023-04-24T06:50:02;26.73;;;17.02;;
41952;SDS011;63613;28.200;112.870;2023-04-24T06:52:29;27.38;;;16.40;;
41952;SDS011;63613;28.200;112.870;2023-04-24T06:55:02;29.85;;;16.83;;
41952;SDS011;63613;28.200;112.870;2023-04-24T06:57:29;28.98;;;17.33;;
41952;SDS011;63613;28.200;112.870;2023-04-24T06:59:56;28.38;;;16.17;;
41952;SDS011;63613;28.200;112.870;2023-04-24T07:02:24;27.25;;;16.08;;
41952;SDS011;63613;28.200;112.870;2023-04-24T07:04:51;27.88;;;14.75;;
41952;SDS011;63613;28.200;112.870;2023-04-24T07:07:19;27.40;;;16.15;;
41952;SDS011;63613;28.200;112.870;2023-04-24T07:09:47;23.50;;;15.13;;
41952;SDS011;63613;28.200;112.870;2023-04-24T07:12:14;25.92;;;14.70;;
41952;SDS011;63613;28.200;112.870;2023-04-24T07:14:42;25.95;;;13.95;;
41952;SDS011;63613;28.200;112.870;2023-04-24T07:17:09;22.50;;;13.77;;
41952;SDS011;63613;28.200;112.870;2023-04-24T07:19:37;22.13;;;13.52;;
41952;SDS011;63613;28.200;112.870;2023-04-24T07:22:04;24.40;;;14.35;;
41952;SDS011;63613;28.200;112.870;2023-04-24T07:24:32;20.13;;;13.25;;
41952;SDS011;63613;28.200;112.870;2023-04-24T07:27:01;24.25;;;14.50;;
41952;SDS011;63613;28.200;112.870;2023-04-24T07:29:31;21.17;;;13.90;;
41952;SDS011;63613;28.200;112.870;2023-04-24T07:32:00;21.40;;;13.07;;
41952;SDS011;63613;28.200;112.870;2023-04-24T07:34:30;19.67;;;12.52;;
41952;SDS011;63613;28.200;112.870;2023-04-24T07:36:57;20.27;;;12.43;;
41952;SDS011;63613;28.200;112.870;2023-04-24T07:39:25;20.50;;;12.90;;
41952;SDS011;63613;28.200;112.870;2023-04-24T07:41:51;18.65;;;11.73;;
41952;SDS011;63613;28.200;112.870;2023-04-24T07:44:20;20.17;;;12.30;;
41952;SDS011;63613;28.200;112.870;2023-04-24T07:46:46;18.73;;;11.30;;
41952;SDS011;63613;28.200;112.870;2023-04-24T07:49:13;18.95;;;10.98;;
41952;SDS011;63613;28.200;112.870;2023-04-24T07:51:40;20.08;;;12.30;;
41952;SDS011;63613;28.200;112.870;2023-04-24T07:54:07;16.75;;;10.32;;
41952;SDS011;63613;28.200;112.870;2023-04-24T07:56:34;16.85;;;10.45;;
41952;SDS011;63613;28.200;112.870;2023-04-24T07:59:04;17.23;;;10.43;;
41952;SDS011;63613;28.200;112.870;2023-04-24T08:01:31;18.40;;;10.80;;
41952;SDS011;63613;28.200;112.870;2023-04-24T08:03:58;16.10;;;11.30;;
41952;SDS011;63613;28.200;112.870;2023-04-24T08:06:25;16.15;;;10.05;;
41952;SDS011;63613;28.200;112.870;2023-04-24T08:08:59;15.07;;;10.52;;
41952;SDS011;63613;28.200;112.870;2023-04-24T08:11:29;13.70;;;8.77;;
41952;SDS011;63613;28.200;112.870;2023-04-24T08:13:55;14.38;;;9.70;;
41952;SDS011;63613;28.200;112.870;2023-04-24T08:16:22;13.57;;;9.25;;
41952;SDS011;63613;28.200;112.870;2023-04-24T08:18:49;12.57;;;9.00;;
41952;SDS011;63613;28.200;112.870;2023-04-24T08:21:16;13.80;;;8.70;;
41952;SDS011;63613;28.200;112.870;2023-04-24T08:23:46;13.80;;;9.25;;
41952;SDS011;63613;28.200;112.870;2023-04-24T08:26:13;13.85;;;9.25;;
41952;SDS011;63613;28.200;112.870;2023-04-24T08:28:40;13.18;;;8.57;;
41952;SDS011;63613;28.200;112.870;2023-04-24T08:31:08;10.82;;;8.45;;
41952;SDS011;63613;28.200;112.870;2023-04-24T08:33:35;13.57;;;8.43;;
41952;SDS011;63613;28.200;112.870;2023-04-24T08:36:02;11.90;;;8.30;;
41952;SDS011;63613;28.200;112.870;2023-04-24T08:38:30;14.40;;;7.70;;
41952;SDS011;63613;28.200;112.870;2023-04-24T08:40:58;10.57;;;7.93;;
41952;SDS011;63613;28.200;112.870;2023-04-24T08:43:29;10.75;;;7.53;;
41952;SDS011;63613;28.200;112.870;2023-04-24T08:45:57;10.05;;;7.88;;
41952;SDS011;63613;28.200;112.870;2023-04-24T08:48:24;9.85;;;6.57;;
41952;SDS011;63613;28.200;112.870;2023-04-24T08:50:52;10.38;;;7.38;;
41952;SDS011;63613;28.200;112.870;2023-04-24T08:53:19;10.75;;;6.80;;
41952;SDS011;63613;28.200;112.870;2023-04-24T08:55:47;10.30;;;6.85;;
41952;SDS011;63613;28.200;112.870;2023-04-24T08:58:17;11.23;;;7.65;;
41952;SDS011;63613;28.200;112.870;2023-04-24T09:00:44;9.27;;;6.60;;
41952;SDS011;63613;28.200;112.870;2023-04-24T09:03:15;10.35;;;6.50;;
41952;SDS011;63613;28.200;112.870;2023-04-24T09:06:02;7.93;;;6.18;;
41952;SDS011;63613;28.200;112.870;2023-04-24T09:08:31;7.95;;;5.95;;
41952;SDS011;63613;28.200;112.870;2023-04-24T09:11:00;9.77;;;6.55;;
41952;SDS011;63613;28.200;112.870;2023-04-24T09:13:28;8.43;;;6.60;;
41952;SDS011;63613;28.200;112.870;2023-04-24T09:15:56;9.05;;;6.82;;
41952;SDS011;63613;28.200;112.870;2023-04-24T09:18:22;10.85;;;7.72;;
41952;SDS011;63613;28.200;112.870;2023-04-24T09:21:02;10.10;;;6.72;;
41952;SDS011;63613;28.200;112.870;2023-04-24T09:23:32;14.95;;;7.80;;
41952;SDS011;63613;28.200;112.870;2023-04-24T09:26:00;16.17;;;8.75;;
41952;SDS011;63613;28.200;112.870;2023-04-24T09:28:31;23.63;;;7.85;;
41952;SDS011;63613;28.200;112.870;2023-04-24T09:31:14;12.45;;;8.18;;
41952;SDS011;63613;28.200;112.870;2023-04-24T09:34:01;14.75;;;8.48;;
41952;SDS011;63613;28.200;112.870;2023-04-24T09:36:31;15.73;;;9.35;;
41952;SDS011;63613;28.200;112.870;2023-04-24T09:39:22;16.63;;;9.23;;
41952;SDS011;63613;28.200;112.870;2023-04-24T09:41:53;18.15;;;9.23;;
41952;SDS011;63613;28.200;112.870;2023-04-24T09:44:25;15.45;;;8.65;;
41952;SDS011;63613;28.200;112.870;2023-04-24T09:49:25;17.77;;;8.90;;
41952;SDS011;63613;28.200;112.870;2023-04-24T09:52:06;15.45;;;9.38;;
41952;SDS011;63613;28.200;112.870;2023-04-24T09:54:34;15.32;;;8.63;;
41952;SDS011;63613;28.200;112.870;2023-04-24T09:57:04;13.80;;;8.60;;
41952;SDS011;63613;28.200;112.870;2023-04-24T09:59:33;15.25;;;9.13;;
41952;SDS011;63613;28.200;112.870;2023-04-24T10:02:00;16.33;;;8.77;;
41952;SDS011;63613;28.200;112.870;2023-04-24T10:04:27;14.88;;;9.02;;
41952;SDS011;63613;28.200;112.870;2023-04-24T10:06:56;16.75;;;9.30;;
41952;SDS011;63613;28.200;112.870;2023-04-24T10:09:43;16.05;;;9.77;;
41952;SDS011;63613;28.200;112.870;2023-04-24T10:12:10;21.33;;;10.23;;
41952;SDS011;63613;28.200;112.870;2023-04-24T10:14:37;15.02;;;9.02;;
41952;SDS011;63613;28.200;112.870;2023-04-24T10:17:04;17.27;;;9.55;;
41952;SDS011;63613;28.200;112.870;2023-04-24T10:19:52;16.52;;;10.27;;
41952;SDS011;63613;28.200;112.870;2023-04-24T10:22:20;14.20;;;9.05;;
41952;SDS011;63613;28.200;112.870;2023-04-24T10:24:48;15.25;;;9.32;;
41952;SDS011;63613;28.200;112.870;2023-04-24T10:27:17;18.48;;;10.30;;
41952;SDS011;63613;28.200;112.870;2023-04-24T10:29:46;19.52;;;9.70;;
41952;SDS011;63613;28.200;112.870;2023-04-24T10:32:14;15.20;;;9.43;;
41952;SDS011;63613;28.200;112.870;2023-04-24T10:34:41;15.48;;;9.10;;
41952;SDS011;63613;28.200;112.870;2023-04-24T10:37:08;17.33;;;9.65;;
41952;SDS011;63613;28.200;112.870;2023-04-24T10:39:36;19.45;;;9.90;;
41952;SDS011;63613;28.200;112.870;2023-04-24T10:42:14;15.43;;;9.95;;
41952;SDS011;63613;28.200;112.870;2023-04-24T10:44:41;19.92;;;10.02;;
41952;SDS011;63613;28.200;112.870;2023-04-24T10:47:14;16.83;;;9.75;;
41952;SDS011;63613;28.200;112.870;2023-04-24T10:49:41;18.25;;;9.38;;
41952;SDS011;63613;28.200;112.870;2023-04-24T10:52:08;17.67;;;9.30;;
41952;SDS011;63613;28.200;112.870;2023-04-24T11:02:45;18.23;;;9.15;;
41952;SDS011;63613;28.200;112.870;2023-04-24T11:05:16;14.77;;;9.68;;
41952;SDS011;63613;28.200;112.870;2023-04-24T11:10:55;16.17;;;9.65;;
41952;SDS011;63613;28.200;112.870;2023-04-24T11:19:08;14.98;;;8.27;;
41952;SDS011;63613;28.200;112.870;2023-04-24T11:21:56;16.48;;;8.95;;
41952;SDS011;63613;28.200;112.870;2023-04-24T11:24:27;15.90;;;8.57;;
41952;SDS011;63613;28.200;112.870;2023-04-24T11:35:03;15.57;;;8.70;;
41952;SDS011;63613;28.200;112.870;2023-04-24T11:37:41;13.40;;;8.68;;
41952;SDS011;63613;28.200;112.870;2023-04-24T11:40:12;13.82;;;8.18;;
41952;SDS011;63613;28.200;112.870;2023-04-24T11:42:46;12.50;;;8.02;;
41952;SDS011;63613;28.200;112.870;2023-04-24T11:45:18;12.48;;;8.00;;
41952;SDS011;63613;28.200;112.870;2023-04-24T11:48:03;12.40;;;7.53;;
41952;SDS011;63613;28.200;112.870;2023-04-24T11:50:30;10.98;;;7.07;;
41952;SDS011;63613;28.200;112.870;2023-04-24T11:52:57;14.13;;;8.50;;
41952;SDS011;63613;28.200;112.870;2023-04-24T11:55:47;14.15;;;8.40;;
41952;SDS011;63613;28.200;112.870;2023-04-24T11:58:14;13.80;;;7.50;;
41952;SDS011;63613;28.200;112.870;2023-04-24T12:00:53;12.45;;;7.90;;
41952;SDS011;63613;28.200;112.870;2023-04-24T12:03:26;11.88;;;7.65;;
41952;SDS011;63613;28.200;112.870;2023-04-24T12:06:08;12.18;;;7.80;;
41952;SDS011;63613;28.200;112.870;2023-04-24T12:08:37;13.13;;;8.02;;
41952;SDS011;63613;28.200;112.870;2023-04-24T12:11:04;10.85;;;7.13;;
41952;SDS011;63613;28.200;112.870;2023-04-24T12:13:35;12.07;;;7.22;;
41952;SDS011;63613;28.200;112.870;2023-04-24T12:16:02;10.80;;;6.63;;
41952;SDS011;63613;28.200;112.870;2023-04-24T12:18:30;10.98;;;7.30;;
41952;SDS011;63613;28.200;112.870;2023-04-24T12:23:54;8.35;;;6.43;;
41952;SDS011;63613;28.200;112.870;2023-04-24T12:26:21;10.82;;;6.65;;
41952;SDS011;63613;28.200;112.870;2023-04-24T12:28:48;11.27;;;6.40;;
41952;SDS011;63613;28.200;112.870;2023-04-24T12:31:16;9.90;;;6.70;;
41952;SDS011;63613;28.200;112.870;2023-04-24T12:33:46;8.15;;;6.78;;
41952;SDS011;63613;28.200;112.870;2023-04-24T12:36:13;9.73;;;6.72;;
41952;SDS011;63613;28.200;112.870;2023-04-24T12:38:42;10.93;;;6.80;;
41952;SDS011;63613;28.200;112.870;2023-04-24T12:41:12;9.73;;;6.78;;
41952;SDS011;63613;28.200;112.870;2023-04-24T12:43:50;10.52;;;6.88;;
41952;SDS011;63613;28.200;112.870;2023-04-24T12:46:20;9.13;;;5.90;;
41952;SDS011;63613;28.200;112.870;2023-04-24T12:48:47;8.07;;;6.53;;
41952;SDS011;63613;28.200;112.870;2023-04-24T12:51:14;9.65;;;6.68;;
41952;SDS011;63613;28.200;112.870;2023-04-24T12:53:41;10.00;;;6.28;;
41952;SDS011;63613;28.200;112.870;2023-04-24T12:56:08;15.02;;;6.90;;
41952;SDS011;63613;28.200;112.870;2023-04-24T12:58:35;10.77;;;7.28;;
41952;SDS011;63613;28.200;112.870;2023-04-24T13:01:01;7.88;;;6.00;;
41952;SDS011;63613;28.200;112.870;2023-04-24T13:03:28;8.55;;;5.97;;
41952;SDS011;63613;28.200;112.870;2023-04-24T13:05:55;8.82;;;6.32;;
41952;SDS011;63613;28.200;112.870;2023-04-24T13:08:46;9.82;;;6.75;;
41952;SDS011;63613;28.200;112.870;2023-04-24T13:11:13;7.88;;;5.80;;
41952;SDS011;63613;28.200;112.870;2023-04-24T13:13:43;7.93;;;5.80;;
41952;SDS011;63613;28.200;112.870;2023-04-24T13:16:10;10.45;;;6.38;;
41952;SDS011;63613;28.200;112.870;2023-04-24T13:18:36;10.40;;;7.13;;
41952;SDS011;63613;28.200;112.870;2023-04-24T13:21:03;9.95;;;7.03;;
41952;SDS011;63613;28.200;112.870;2023-04-24T13:23:33;8.50;;;6.82;;
41952;SDS011;63613;28.200;112.870;2023-04-24T13:26:00;9.05;;;6.72;;
41952;SDS011;63613;28.200;112.870;2023-04-24T13:28:28;9.85;;;6.68;;
41952;SDS011;63613;28.200;112.870;2023-04-24T13:30:55;8.95;;;6.50;;
41952;SDS011;63613;28.200;112.870;2023-04-24T13:33:22;8.82;;;6.22;;
41952;SDS011;63613;28.200;112.870;2023-04-24T13:35:49;9.02;;;6.57;;
41952;SDS011;63613;28.200;112.870;2023-04-24T13:38:15;8.88;;;6.78;;
41952;SDS011;63613;28.200;112.870;2023-04-24T13:40:47;9.32;;;6.95;;
41952;SDS011;63613;28.200;112.870;2023-04-24T13:43:14;9.85;;;6.00;;
41952;SDS011;63613;28.200;112.870;2023-04-24T13:45:41;8.85;;;6.78;;
41952;SDS011;63613;28.200;112.870;2023-04-24T13:48:08;10.95;;;7.10;;
41952;SDS011;63613;28.200;112.870;2023-04-24T13:50:35;8.55;;;6.70;;
41952;SDS011;63613;28.200;112.870;2023-04-24T13:53:03;9.65;;;6.65;;
41952;SDS011;63613;28.200;112.870;2023-04-24T13:55:30;10.48;;;7.45;;
41952;SDS011;63613;28.200;112.870;2023-04-24T13:57:57;9.63;;;6.60;;
41952;SDS011;63613;28.200;112.870;2023-04-24T14:00:24;9.60;;;6.88;;
41952;SDS011;63613;28.200;112.870;2023-04-24T14:02:51;7.65;;;6.78;;
41952;SDS011;63613;28.200;112.870;2023-04-24T14:05:19;9.85;;;7.03;;
41952;SDS011;63613;28.200;112.870;2023-04-24T14:07:47;7.93;;;6.55;;
41952;SDS011;63613;28.200;112.870;2023-04-24T14:10:14;9.50;;;6.47;;
41952;SDS011;63613;28.200;112.870;2023-04-24T14:12:45;8.80;;;5.70;;
41952;SDS011;63613;28.200;112.870;2023-04-24T14:15:12;8.77;;;6.50;;
41952;SDS011;63613;28.200;112.870;2023-04-24T14:17:40;8.25;;;6.80;;
41952;SDS011;63613;28.200;112.870;2023-04-24T14:20:08;8.13;;;6.68;;
41952;SDS011;63613;28.200;112.870;2023-04-24T14:22:36;7.85;;;6.63;;
41952;SDS011;63613;28.200;112.870;2023-04-24T14:25:02;8.07;;;6.47;;
41952;SDS011;63613;28.200;112.870;2023-04-24T14:27:31;8.45;;;6.43;;
41952;SDS011;63613;28.200;112.870;2023-04-24T14:30:01;10.35;;;6.45;;
41952;SDS011;63613;28.200;112.870;2023-04-24T14:32:29;10.02;;;6.85;;
41952;SDS011;63613;28.200;112.870;2023-04-24T14:34:56;7.47;;;6.20;;
41952;SDS011;63613;28.200;112.870;2023-04-24T14:37:23;8.48;;;6.38;;
41952;SDS011;63613;28.200;112.870;2023-04-24T14:39:50;11.32;;;6.88;;
41952;SDS011;63613;28.200;112.870;2023-04-24T14:42:18;8.55;;;7.18;;
41952;SDS011;63613;28.200;112.870;2023-04-24T14:44:45;9.25;;;6.78;;
41952;SDS011;63613;28.200;112.870;2023-04-24T14:47:14;8.02;;;6.45;;
41952;SDS011;63613;28.200;112.870;2023-04-24T14:50:03;7.30;;;6.53;;
41952;SDS011;63613;28.200;112.870;2023-04-24T14:52:30;7.50;;;6.35;;
41952;SDS011;63613;28.200;112.870;2023-04-24T14:54:57;8.05;;;6.75;;
41952;SDS011;63613;28.200;112.870;2023-04-24T14:57:27;8.68;;;6.88;;